sensor_id;sensor_type;location;lat;lon;timestamp;P1;durP1;ratioP1;P2;durP2;ratioP2
8490;SDS011;4282;49.986;7.938;2023-04-23T00:02:09;5.83;;;4.60;;
8490;SDS011;4282;49.986;7.938;2023-04-23T00:04:39;4.60;;;4.20;;
8490;SDS011;4282;49.986;7.938;2023-04-23T00:07:14;6.03;;;4.00;;
8490;SDS011;4282;49.986;7.938;2023-04-23T00:09:42;5.37;;;4.77;;
8490;SDS011;4282;49.986;7.938;2023-04-23T00:12:14;5.27;;;4.10;;
8490;SDS011;4282;49.986;7.938;2023-04-23T00:14:43;4.93;;;4.43;;
8490;SDS011;4282;49.986;7.938;2023-04-23T00:17:12;4.40;;;4.00;;
8490;SDS011;4282;49.986;7.938;2023-04-23T00:19:40;4.60;;;4.20;;
8490;SDS011;4282;49.986;7.938;2023-04-23T00:22:08;4.93;;;4.50;;
8490;SDS011;4282;49.986;7.938;2023-04-23T00:24:37;5.00;;;4.50;;
8490;SDS011;4282;49.986;7.938;2023-04-23T00:27:06;6.07;;;4.60;;
8490;SDS011;4282;49.986;7.938;2023-04-23T00:29:37;6.20;;;4.83;;
8490;SDS011;4282;49.986;7.938;2023-04-23T00:32:05;5.03;;;4.47;;
8490;SDS011;4282;49.986;7.938;2023-04-23T00:34:34;6.50;;;4.40;;
8490;SDS011;4282;49.986;7.938;2023-04-23T00:37:02;5.50;;;4.80;;
8490;SDS011;4282;49.986;7.938;2023-04-23T00:39:32;5.37;;;4.87;;
8490;SDS011;4282;49.986;7.938;2023-04-23T00:42:01;5.37;;;4.87;;
8490;SDS011;4282;49.986;7.938;2023-04-23T00:44:38;6.63;;;4.90;;
8490;SDS011;4282;49.986;7.938;2023-04-23T00:47:06;4.80;;;4.33;;
8490;SDS011;4282;49.986;7.938;2023-04-23T00:49:36;5.73;;;4.77;;
8490;SDS011;4282;49.986;7.938;2023-04-23T00:52:05;6.33;;;4.40;;
8490;SDS011;4282;49.986;7.938;2023-04-23T00:54:33;5.23;;;4.77;;
8490;SDS011;4282;49.986;7.938;2023-04-23T00:57:02;5.00;;;4.50;;
8490;SDS011;4282;49.986;7.938;2023-04-23T00:59:32;5.77;;;5.00;;
8490;SDS011;4282;49.986;7.938;2023-04-23T01:02:03;5.40;;;4.90;;
8490;SDS011;4282;49.986;7.938;2023-04-23T01:04:31;5.20;;;4.70;;
8490;SDS011;4282;49.986;7.938;2023-04-23T01:07:00;4.73;;;4.33;;
8490;SDS011;4282;49.986;7.938;2023-04-23T01:09:28;6.47;;;5.30;;
8490;SDS011;4282;49.986;7.938;2023-04-23T01:11:57;4.30;;;3.87;;
8490;SDS011;4282;49.986;7.938;2023-04-23T01:14:26;5.07;;;4.57;;
8490;SDS011;4282;49.986;7.938;2023-04-23T01:16:54;5.00;;;4.50;;
8490;SDS011;4282;49.986;7.938;2023-04-23T01:19:25;6.80;;;5.40;;
8490;SDS011;4282;49.986;7.938;2023-04-23T01:21:53;5.47;;;4.93;;
8490;SDS011;4282;49.986;7.938;2023-04-23T01:24:27;5.90;;;5.30;;
8490;SDS011;4282;49.986;7.938;2023-04-23T01:26:56;6.20;;;5.00;;
8490;SDS011;4282;49.986;7.938;2023-04-23T01:29:25;5.87;;;5.23;;
8490;SDS011;4282;49.986;7.938;2023-04-23T01:31:54;7.13;;;5.70;;
8490;SDS011;4282;49.986;7.938;2023-04-23T01:34:22;5.33;;;4.83;;
8490;SDS011;4282;49.986;7.938;2023-04-23T01:36:51;6.43;;;5.20;;
8490;SDS011;4282;49.986;7.938;2023-04-23T01:39:19;5.10;;;4.60;;
8490;SDS011;4282;49.986;7.938;2023-04-23T01:41:50;5.47;;;4.63;;
8490;SDS011;4282;49.986;7.938;2023-04-23T01:44:21;5.33;;;4.83;;
8490;SDS011;4282;49.986;7.938;2023-04-23T01:46:49;5.17;;;4.63;;
8490;SDS011;4282;49.986;7.938;2023-04-23T01:49:18;5.30;;;4.80;;
8490;SDS011;4282;49.986;7.938;2023-04-23T01:51:46;5.63;;;5.13;;
8490;SDS011;4282;49.986;7.938;2023-04-23T01:54:14;6.53;;;5.93;;
8490;SDS011;4282;49.986;7.938;2023-04-23T01:56:42;5.87;;;5.07;;
8490;SDS011;4282;49.986;7.938;2023-04-23T01:59:13;6.70;;;5.97;;
8490;SDS011;4282;49.986;7.938;2023-04-23T02:01:42;6.70;;;6.00;;
8490;SDS011;4282;49.986;7.938;2023-04-23T02:04:12;6.67;;;5.97;;
8490;SDS011;4282;49.986;7.938;2023-04-23T02:06:42;6.77;;;6.17;;
8490;SDS011;4282;49.986;7.938;2023-04-23T02:09:12;6.83;;;5.63;;
8490;SDS011;4282;49.986;7.938;2023-04-23T02:11:41;6.97;;;6.27;;
8490;SDS011;4282;49.986;7.938;2023-04-23T02:14:09;5.80;;;5.30;;
8490;SDS011;4282;49.986;7.938;2023-04-23T02:16:40;6.07;;;5.43;;
8490;SDS011;4282;49.986;7.938;2023-04-23T02:19:09;5.97;;;5.37;;
8490;SDS011;4282;49.986;7.938;2023-04-23T02:21:37;10.43;;;5.77;;
8490;SDS011;4282;49.986;7.938;2023-04-23T02:24:06;6.13;;;5.53;;
8490;SDS011;4282;49.986;7.938;2023-04-23T02:26:35;6.23;;;5.13;;
8490;SDS011;4282;49.986;7.938;2023-04-23T02:29:03;6.37;;;5.63;;
8490;SDS011;4282;49.986;7.938;2023-04-23T02:31:31;5.73;;;5.13;;
8490;SDS011;4282;49.986;7.938;2023-04-23T02:34:02;6.13;;;5.53;;
8490;SDS011;4282;49.986;7.938;2023-04-23T02:36:30;5.93;;;5.30;;
8490;SDS011;4282;49.986;7.938;2023-04-23T02:38:59;7.97;;;6.20;;
8490;SDS011;4282;49.986;7.938;2023-04-23T02:41:27;5.60;;;5.10;;
8490;SDS011;4282;49.986;7.938;2023-04-23T02:43:55;7.20;;;5.70;;
8490;SDS011;4282;49.986;7.938;2023-04-23T02:46:24;7.07;;;5.70;;
8490;SDS011;4282;49.986;7.938;2023-04-23T02:48:52;6.07;;;4.90;;
8490;SDS011;4282;49.986;7.938;2023-04-23T02:51:23;6.40;;;5.30;;
8490;SDS011;4282;49.986;7.938;2023-04-23T02:53:51;6.40;;;5.60;;
8490;SDS011;4282;49.986;7.938;2023-04-23T02:56:20;4.97;;;4.47;;
8490;SDS011;4282;49.986;7.938;2023-04-23T02:58:48;5.53;;;5.03;;
8490;SDS011;4282;49.986;7.938;2023-04-23T03:01:17;7.23;;;5.33;;
8490;SDS011;4282;49.986;7.938;2023-04-23T03:03:45;6.90;;;5.50;;
8490;SDS011;4282;49.986;7.938;2023-04-23T03:06:13;5.80;;;5.30;;
8490;SDS011;4282;49.986;7.938;2023-04-23T03:08:44;6.80;;;5.97;;
8490;SDS011;4282;49.986;7.938;2023-04-23T03:11:12;6.23;;;5.60;;
8490;SDS011;4282;49.986;7.938;2023-04-23T03:13:41;7.37;;;6.67;;
8490;SDS011;4282;49.986;7.938;2023-04-23T03:16:09;6.50;;;5.80;;
8490;SDS011;4282;49.986;7.938;2023-04-23T03:18:38;7.37;;;6.20;;
8490;SDS011;4282;49.986;7.938;2023-04-23T03:21:06;6.40;;;5.40;;
8490;SDS011;4282;49.986;7.938;2023-04-23T03:23:34;7.27;;;5.73;;
8490;SDS011;4282;49.986;7.938;2023-04-23T03:26:05;6.47;;;5.83;;
8490;SDS011;4282;49.986;7.938;2023-04-23T03:28:33;7.47;;;5.67;;
8490;SDS011;4282;49.986;7.938;2023-04-23T03:31:02;6.67;;;5.93;;
8490;SDS011;4282;49.986;7.938;2023-04-23T03:33:30;6.47;;;5.80;;
8490;SDS011;4282;49.986;7.938;2023-04-23T03:35:58;7.13;;;6.43;;
8490;SDS011;4282;49.986;7.938;2023-04-23T03:38:26;6.77;;;6.17;;
8490;SDS011;4282;49.986;7.938;2023-04-23T03:40:54;7.20;;;6.10;;
8490;SDS011;4282;49.986;7.938;2023-04-23T03:43:25;6.93;;;6.23;;
8490;SDS011;4282;49.986;7.938;2023-04-23T03:45:54;7.23;;;6.37;;
8490;SDS011;4282;49.986;7.938;2023-04-23T03:48:22;8.57;;;7.27;;
8490;SDS011;4282;49.986;7.938;2023-04-23T03:50:51;7.33;;;6.40;;
8490;SDS011;4282;49.986;7.938;2023-04-23T03:53:19;7.93;;;6.57;;
8490;SDS011;4282;49.986;7.938;2023-04-23T03:55:47;8.37;;;6.53;;
8490;SDS011;4282;49.986;7.938;2023-04-23T03:58:15;7.10;;;6.23;;
8490;SDS011;4282;49.986;7.938;2023-04-23T04:00:46;7.53;;;6.40;;
8490;SDS011;4282;49.986;7.938;2023-04-23T04:03:15;6.60;;;6.00;;
8490;SDS011;4282;49.986;7.938;2023-04-23T04:05:43;7.00;;;6.30;;
8490;SDS011;4282;49.986;7.938;2023-04-23T04:08:11;7.13;;;6.20;;
8490;SDS011;4282;49.986;7.938;2023-04-23T04:10:39;7.07;;;6.37;;
8490;SDS011;4282;49.986;7.938;2023-04-23T04:13:08;6.53;;;5.93;;
8490;SDS011;4282;49.986;7.938;2023-04-23T04:15:36;6.67;;;5.97;;
8490;SDS011;4282;49.986;7.938;2023-04-23T04:18:07;6.70;;;6.10;;
8490;SDS011;4282;49.986;7.938;2023-04-23T04:20:35;7.17;;;6.47;;
8490;SDS011;4282;49.986;7.938;2023-04-23T04:23:03;7.27;;;6.30;;
8490;SDS011;4282;49.986;7.938;2023-04-23T04:25:32;6.13;;;5.53;;
8490;SDS011;4282;49.986;7.938;2023-04-23T04:28:04;6.50;;;5.90;;
8490;SDS011;4282;49.986;7.938;2023-04-23T04:30:32;7.60;;;5.80;;
8490;SDS011;4282;49.986;7.938;2023-04-23T04:33:00;6.07;;;5.57;;
8490;SDS011;4282;49.986;7.938;2023-04-23T04:35:31;6.10;;;4.93;;
8490;SDS011;4282;49.986;7.938;2023-04-23T04:37:59;6.37;;;5.77;;
8490;SDS011;4282;49.986;7.938;2023-04-23T04:40:28;5.47;;;4.70;;
8490;SDS011;4282;49.986;7.938;2023-04-23T04:42:57;5.33;;;4.83;;
8490;SDS011;4282;49.986;7.938;2023-04-23T04:45:26;6.43;;;4.90;;
8490;SDS011;4282;49.986;7.938;2023-04-23T04:47:54;5.00;;;4.50;;
8490;SDS011;4282;49.986;7.938;2023-04-23T04:50:22;5.07;;;4.57;;
8490;SDS011;4282;49.986;7.938;2023-04-23T04:52:53;4.47;;;4.07;;
8490;SDS011;4282;49.986;7.938;2023-04-23T04:55:22;4.70;;;4.20;;
8490;SDS011;4282;49.986;7.938;2023-04-23T04:57:51;5.67;;;4.70;;
8490;SDS011;4282;49.986;7.938;2023-04-23T05:00:21;6.10;;;5.00;;
8490;SDS011;4282;49.986;7.938;2023-04-23T05:02:52;7.07;;;5.23;;
8490;SDS011;4282;49.986;7.938;2023-04-23T05:05:20;5.57;;;4.57;;
8490;SDS011;4282;49.986;7.938;2023-04-23T05:07:49;5.43;;;4.80;;
8490;SDS011;4282;49.986;7.938;2023-04-23T05:10:21;5.27;;;4.77;;
8490;SDS011;4282;49.986;7.938;2023-04-23T05:12:49;5.00;;;4.50;;
8490;SDS011;4282;49.986;7.938;2023-04-23T05:15:18;4.97;;;4.47;;
8490;SDS011;4282;49.986;7.938;2023-04-23T05:17:46;5.30;;;4.80;;
8490;SDS011;4282;49.986;7.938;2023-04-23T05:20:17;5.20;;;4.70;;
8490;SDS011;4282;49.986;7.938;2023-04-23T05:22:45;5.30;;;4.80;;
8490;SDS011;4282;49.986;7.938;2023-04-23T05:25:14;6.03;;;5.20;;
8490;SDS011;4282;49.986;7.938;2023-04-23T05:27:45;5.60;;;5.10;;
8490;SDS011;4282;49.986;7.938;2023-04-23T05:30:13;6.53;;;5.20;;
8490;SDS011;4282;49.986;7.938;2023-04-23T05:32:42;6.83;;;6.13;;
8490;SDS011;4282;49.986;7.938;2023-04-23T05:35:10;6.63;;;5.90;;
8490;SDS011;4282;49.986;7.938;2023-04-23T05:37:39;6.00;;;5.47;;
8490;SDS011;4282;49.986;7.938;2023-04-23T05:40:08;6.70;;;5.80;;
8490;SDS011;4282;49.986;7.938;2023-04-23T05:42:39;5.93;;;5.33;;
8490;SDS011;4282;49.986;7.938;2023-04-23T05:45:10;5.83;;;5.23;;
8490;SDS011;4282;49.986;7.938;2023-04-23T05:47:38;5.50;;;5.00;;
8490;SDS011;4282;49.986;7.938;2023-04-23T05:50:07;6.10;;;5.50;;
8490;SDS011;4282;49.986;7.938;2023-04-23T05:52:36;6.17;;;5.60;;
8490;SDS011;4282;49.986;7.938;2023-04-23T05:55:05;5.93;;;5.07;;
8490;SDS011;4282;49.986;7.938;2023-04-23T05:57:34;6.73;;;5.67;;
8490;SDS011;4282;49.986;7.938;2023-04-23T06:00:03;5.97;;;5.37;;
8490;SDS011;4282;49.986;7.938;2023-04-23T06:02:36;5.50;;;4.83;;
8490;SDS011;4282;49.986;7.938;2023-04-23T06:05:04;4.70;;;4.30;;
8490;SDS011;4282;49.986;7.938;2023-04-23T06:07:33;4.90;;;4.40;;
8490;SDS011;4282;49.986;7.938;2023-04-23T06:10:02;4.70;;;4.30;;
8490;SDS011;4282;49.986;7.938;2023-04-23T06:12:31;5.10;;;4.60;;
8490;SDS011;4282;49.986;7.938;2023-04-23T06:15:03;6.57;;;4.83;;
8490;SDS011;4282;49.986;7.938;2023-04-23T06:17:32;5.33;;;4.83;;
8490;SDS011;4282;49.986;7.938;2023-04-23T06:20:04;5.23;;;4.73;;
8490;SDS011;4282;49.986;7.938;2023-04-23T06:22:35;6.77;;;4.90;;
8490;SDS011;4282;49.986;7.938;2023-04-23T06:25:04;5.50;;;4.90;;
8490;SDS011;4282;49.986;7.938;2023-04-23T06:27:33;6.07;;;4.77;;
8490;SDS011;4282;49.986;7.938;2023-04-23T06:30:01;4.87;;;4.47;;
8490;SDS011;4282;49.986;7.938;2023-04-23T06:32:29;5.50;;;5.00;;
8490;SDS011;4282;49.986;7.938;2023-04-23T06:35:00;5.93;;;5.27;;
8490;SDS011;4282;49.986;7.938;2023-04-23T06:37:29;5.50;;;5.00;;
8490;SDS011;4282;49.986;7.938;2023-04-23T06:39:57;4.73;;;4.20;;
8490;SDS011;4282;49.986;7.938;2023-04-23T06:42:26;5.07;;;4.23;;
8490;SDS011;4282;49.986;7.938;2023-04-23T06:44:55;5.27;;;4.77;;
8490;SDS011;4282;49.986;7.938;2023-04-23T06:47:28;5.40;;;4.80;;
8490;SDS011;4282;49.986;7.938;2023-04-23T06:49:56;5.37;;;4.83;;
8490;SDS011;4282;49.986;7.938;2023-04-23T06:52:27;5.53;;;5.03;;
8490;SDS011;4282;49.986;7.938;2023-04-23T06:54:55;5.43;;;4.93;;
8490;SDS011;4282;49.986;7.938;2023-04-23T06:57:24;5.80;;;4.30;;
8490;SDS011;4282;49.986;7.938;2023-04-23T06:59:52;5.40;;;4.90;;
8490;SDS011;4282;49.986;7.938;2023-04-23T07:02:20;4.87;;;4.47;;
8490;SDS011;4282;49.986;7.938;2023-04-23T07:04:48;4.70;;;4.30;;
8490;SDS011;4282;49.986;7.938;2023-04-23T07:07:17;5.13;;;4.63;;
8490;SDS011;4282;49.986;7.938;2023-04-23T07:09:48;4.70;;;4.20;;
8490;SDS011;4282;49.986;7.938;2023-04-23T07:12:16;5.13;;;4.63;;
8490;SDS011;4282;49.986;7.938;2023-04-23T07:14:44;5.97;;;4.77;;
8490;SDS011;4282;49.986;7.938;2023-04-23T07:17:13;5.07;;;3.97;;
8490;SDS011;4282;49.986;7.938;2023-04-23T07:19:41;5.00;;;4.50;;
8490;SDS011;4282;49.986;7.938;2023-04-23T07:22:09;5.50;;;4.67;;
8490;SDS011;4282;49.986;7.938;2023-04-23T07:24:37;5.00;;;4.50;;
8490;SDS011;4282;49.986;7.938;2023-04-23T07:27:08;5.43;;;4.87;;
8490;SDS011;4282;49.986;7.938;2023-04-23T07:29:36;4.77;;;4.30;;
8490;SDS011;4282;49.986;7.938;2023-04-23T07:32:05;4.80;;;4.40;;
8490;SDS011;4282;49.986;7.938;2023-04-23T07:34:33;5.20;;;4.70;;
8490;SDS011;4282;49.986;7.938;2023-04-23T07:37:03;4.73;;;4.33;;
8490;SDS011;4282;49.986;7.938;2023-04-23T07:39:31;6.07;;;4.67;;
8490;SDS011;4282;49.986;7.938;2023-04-23T07:42:00;4.87;;;4.37;;
8490;SDS011;4282;49.986;7.938;2023-04-23T07:44:32;6.13;;;4.63;;
8490;SDS011;4282;49.986;7.938;2023-04-23T07:47:00;6.50;;;4.40;;
8490;SDS011;4282;49.986;7.938;2023-04-23T07:49:28;6.03;;;4.83;;
8490;SDS011;4282;49.986;7.938;2023-04-23T07:51:57;7.00;;;4.77;;
8490;SDS011;4282;49.986;7.938;2023-04-23T07:54:25;6.17;;;5.37;;
8490;SDS011;4282;49.986;7.938;2023-04-23T07:56:53;4.83;;;4.43;;
8490;SDS011;4282;49.986;7.938;2023-04-23T07:59:22;5.67;;;4.73;;
8490;SDS011;4282;49.986;7.938;2023-04-23T08:01:53;5.80;;;5.23;;
8490;SDS011;4282;49.986;7.938;2023-04-23T08:04:21;4.83;;;4.43;;
8490;SDS011;4282;49.986;7.938;2023-04-23T08:06:50;4.63;;;4.13;;
8490;SDS011;4282;49.986;7.938;2023-04-23T08:09:18;7.00;;;4.90;;
8490;SDS011;4282;49.986;7.938;2023-04-23T08:11:47;4.77;;;4.37;;
8490;SDS011;4282;49.986;7.938;2023-04-23T08:14:16;6.43;;;4.10;;
8490;SDS011;4282;49.986;7.938;2023-04-23T08:16:44;7.10;;;5.20;;
8490;SDS011;4282;49.986;7.938;2023-04-23T08:19:15;6.37;;;5.43;;
8490;SDS011;4282;49.986;7.938;2023-04-23T08:21:43;6.00;;;5.17;;
8490;SDS011;4282;49.986;7.938;2023-04-23T08:24:12;6.10;;;4.20;;
8490;SDS011;4282;49.986;7.938;2023-04-23T08:26:40;4.40;;;3.57;;
8490;SDS011;4282;49.986;7.938;2023-04-23T08:29:09;4.43;;;3.70;;
8490;SDS011;4282;49.986;7.938;2023-04-23T08:31:37;5.60;;;4.53;;
8490;SDS011;4282;49.986;7.938;2023-04-23T08:34:05;4.97;;;3.50;;
8490;SDS011;4282;49.986;7.938;2023-04-23T08:36:36;3.37;;;3.10;;
8490;SDS011;4282;49.986;7.938;2023-04-23T08:39:04;5.37;;;3.20;;
8490;SDS011;4282;49.986;7.938;2023-04-23T08:41:34;5.20;;;3.20;;
8490;SDS011;4282;49.986;7.938;2023-04-23T08:44:11;4.20;;;3.30;;
8490;SDS011;4282;49.986;7.938;2023-04-23T08:46:43;4.97;;;3.40;;
8490;SDS011;4282;49.986;7.938;2023-04-23T08:49:13;4.90;;;3.20;;
8490;SDS011;4282;49.986;7.938;2023-04-23T08:51:45;4.27;;;2.80;;
8490;SDS011;4282;49.986;7.938;2023-04-23T08:54:18;3.90;;;2.70;;
8490;SDS011;4282;49.986;7.938;2023-04-23T08:56:48;2.73;;;2.10;;
8490;SDS011;4282;49.986;7.938;2023-04-23T08:59:17;3.97;;;2.97;;
8490;SDS011;4282;49.986;7.938;2023-04-23T09:01:47;2.70;;;2.50;;
8490;SDS011;4282;49.986;7.938;2023-04-23T09:04:15;4.33;;;2.43;;
8490;SDS011;4282;49.986;7.938;2023-04-23T09:06:47;3.45;;;2.40;;
8490;SDS011;4282;49.986;7.938;2023-04-23T09:09:15;2.65;;;2.38;;
8490;SDS011;4282;49.986;7.938;2023-04-23T09:11:44;2.53;;;2.22;;
8490;SDS011;4282;49.986;7.938;2023-04-23T09:14:12;3.10;;;2.80;;
8490;SDS011;4282;49.986;7.938;2023-04-23T09:16:41;2.55;;;2.00;;
8490;SDS011;4282;49.986;7.938;2023-04-23T09:19:09;2.67;;;2.33;;
8490;SDS011;4282;49.986;7.938;2023-04-23T09:21:38;2.25;;;2.05;;
8490;SDS011;4282;49.986;7.938;2023-04-23T09:24:11;2.95;;;2.15;;
8490;SDS011;4282;49.986;7.938;2023-04-23T09:26:45;5.30;;;2.20;;
8490;SDS011;4282;49.986;7.938;2023-04-23T09:29:14;2.38;;;2.17;;
8490;SDS011;4282;49.986;7.938;2023-04-23T09:31:44;2.78;;;1.98;;
8490;SDS011;4282;49.986;7.938;2023-04-23T09:34:14;3.55;;;1.90;;
8490;SDS011;4282;49.986;7.938;2023-04-23T09:36:43;2.08;;;1.88;;
8490;SDS011;4282;49.986;7.938;2023-04-23T09:39:16;3.22;;;1.90;;
8490;SDS011;4282;49.986;7.938;2023-04-23T09:41:45;1.63;;;1.52;;
8490;SDS011;4282;49.986;7.938;2023-04-23T09:44:16;2.85;;;2.13;;
8490;SDS011;4282;49.986;7.938;2023-04-23T09:46:46;1.80;;;1.70;;
8490;SDS011;4282;49.986;7.938;2023-04-23T09:49:15;2.10;;;1.70;;
8490;SDS011;4282;49.986;7.938;2023-04-23T09:51:45;2.80;;;1.58;;
8490;SDS011;4282;49.986;7.938;2023-04-23T09:54:18;2.42;;;1.65;;
8490;SDS011;4282;49.986;7.938;2023-04-23T09:56:50;1.70;;;1.30;;
8490;SDS011;4282;49.986;7.938;2023-04-23T09:59:22;1.92;;;1.35;;
8490;SDS011;4282;49.986;7.938;2023-04-23T10:01:51;1.50;;;1.38;;
8490;SDS011;4282;49.986;7.938;2023-04-23T10:04:20;2.25;;;1.60;;
8490;SDS011;4282;49.986;7.938;2023-04-23T10:06:52;3.45;;;1.60;;
8490;SDS011;4282;49.986;7.938;2023-04-23T10:09:24;2.75;;;1.50;;
8490;SDS011;4282;49.986;7.938;2023-04-23T10:11:54;2.42;;;1.63;;
8490;SDS011;4282;49.986;7.938;2023-04-23T10:14:24;4.28;;;1.75;;
8490;SDS011;4282;49.986;7.938;2023-04-23T10:16:55;1.55;;;1.33;;
8490;SDS011;4282;49.986;7.938;2023-04-23T10:19:25;2.53;;;1.27;;
8490;SDS011;4282;49.986;7.938;2023-04-23T10:21:54;1.70;;;1.52;;
8490;SDS011;4282;49.986;7.938;2023-04-23T10:24:28;2.00;;;1.45;;
8490;SDS011;4282;49.986;7.938;2023-04-23T10:27:00;1.88;;;1.20;;
8490;SDS011;4282;49.986;7.938;2023-04-23T10:29:29;2.45;;;1.58;;
8490;SDS011;4282;49.986;7.938;2023-04-23T10:31:58;2.35;;;1.42;;
8490;SDS011;4282;49.986;7.938;2023-04-23T10:34:29;1.92;;;1.63;;
8490;SDS011;4282;49.986;7.938;2023-04-23T10:36:59;1.92;;;1.40;;
8490;SDS011;4282;49.986;7.938;2023-04-23T10:39:31;2.83;;;1.63;;
8490;SDS011;4282;49.986;7.938;2023-04-23T10:42:01;2.25;;;1.60;;
8490;SDS011;4282;49.986;7.938;2023-04-23T10:44:33;3.25;;;1.50;;
8490;SDS011;4282;49.986;7.938;2023-04-23T10:47:04;3.42;;;1.85;;
8490;SDS011;4282;49.986;7.938;2023-04-23T10:49:33;3.28;;;1.65;;
8490;SDS011;4282;49.986;7.938;2023-04-23T10:52:02;2.60;;;1.33;;
8490;SDS011;4282;49.986;7.938;2023-04-23T10:54:37;4.22;;;1.42;;
8490;SDS011;4282;49.986;7.938;2023-04-23T10:57:06;2.47;;;1.48;;
8490;SDS011;4282;49.986;7.938;2023-04-23T10:59:37;3.20;;;1.40;;
8490;SDS011;4282;49.986;7.938;2023-04-23T11:02:07;2.97;;;1.45;;
8490;SDS011;4282;49.986;7.938;2023-04-23T11:04:40;1.80;;;1.60;;
8490;SDS011;4282;49.986;7.938;2023-04-23T11:07:09;2.67;;;1.60;;
8490;SDS011;4282;49.986;7.938;2023-04-23T11:09:41;1.40;;;1.30;;
8490;SDS011;4282;49.986;7.938;2023-04-23T11:12:11;2.58;;;1.52;;
8490;SDS011;4282;49.986;7.938;2023-04-23T11:14:50;4.72;;;1.73;;
8490;SDS011;4282;49.986;7.938;2023-04-23T11:17:20;1.73;;;1.25;;
8490;SDS011;4282;49.986;7.938;2023-04-23T11:22:34;4.60;;;2.00;;
8490;SDS011;4282;49.986;7.938;2023-04-23T11:25:07;2.55;;;1.50;;
8490;SDS011;4282;49.986;7.938;2023-04-23T11:27:37;2.20;;;1.42;;
8490;SDS011;4282;49.986;7.938;2023-04-23T11:30:09;2.35;;;1.50;;
8490;SDS011;4282;49.986;7.938;2023-04-23T11:32:39;1.50;;;1.40;;
8490;SDS011;4282;49.986;7.938;2023-04-23T11:35:08;3.00;;;1.50;;
8490;SDS011;4282;49.986;7.938;2023-04-23T11:37:37;2.22;;;1.70;;
8490;SDS011;4282;49.986;7.938;2023-04-23T11:40:11;1.92;;;1.38;;
8490;SDS011;4282;49.986;7.938;2023-04-23T11:42:43;2.47;;;1.48;;
8490;SDS011;4282;49.986;7.938;2023-04-23T11:45:14;3.65;;;1.58;;
8490;SDS011;4282;49.986;7.938;2023-04-23T11:47:43;3.95;;;2.25;;
8490;SDS011;4282;49.986;7.938;2023-04-23T11:50:15;1.50;;;1.40;;
8490;SDS011;4282;49.986;7.938;2023-04-23T11:52:45;3.20;;;1.67;;
8490;SDS011;4282;49.986;7.938;2023-04-23T11:55:16;4.40;;;1.20;;
8490;SDS011;4282;49.986;7.938;2023-04-23T11:57:44;3.25;;;2.08;;
8490;SDS011;4282;49.986;7.938;2023-04-23T12:00:14;3.15;;;1.70;;
8490;SDS011;4282;49.986;7.938;2023-04-23T12:02:50;1.95;;;1.23;;
8490;SDS011;4282;49.986;7.938;2023-04-23T12:05:20;3.60;;;1.60;;
8490;SDS011;4282;49.986;7.938;2023-04-23T12:07:49;1.30;;;1.17;;
8490;SDS011;4282;49.986;7.938;2023-04-23T12:10:21;1.52;;;1.10;;
8490;SDS011;4282;49.986;7.938;2023-04-23T12:12:50;1.45;;;1.33;;
8490;SDS011;4282;49.986;7.938;2023-04-23T12:15:19;2.10;;;1.48;;
8490;SDS011;4282;49.986;7.938;2023-04-23T12:17:47;4.82;;;1.35;;
8490;SDS011;4282;49.986;7.938;2023-04-23T12:20:17;1.83;;;1.33;;
8490;SDS011;4282;49.986;7.938;2023-04-23T12:22:46;1.77;;;1.33;;
8490;SDS011;4282;49.986;7.938;2023-04-23T12:25:15;2.38;;;1.30;;
8490;SDS011;4282;49.986;7.938;2023-04-23T12:27:46;1.35;;;1.08;;
8490;SDS011;4282;49.986;7.938;2023-04-23T12:30:14;1.58;;;1.30;;
8490;SDS011;4282;49.986;7.938;2023-04-23T12:32:43;1.60;;;1.30;;
8490;SDS011;4282;49.986;7.938;2023-04-23T12:35:11;1.85;;;1.45;;
8490;SDS011;4282;49.986;7.938;2023-04-23T12:37:39;2.60;;;1.48;;
8490;SDS011;4282;49.986;7.938;2023-04-23T12:40:08;1.88;;;1.20;;
8490;SDS011;4282;49.986;7.938;2023-04-23T12:42:37;1.77;;;1.10;;
8490;SDS011;4282;49.986;7.938;2023-04-23T12:45:09;2.22;;;1.00;;
8490;SDS011;4282;49.986;7.938;2023-04-23T12:47:37;2.38;;;1.23;;
8490;SDS011;4282;49.986;7.938;2023-04-23T12:50:06;1.60;;;1.20;;
8490;SDS011;4282;49.986;7.938;2023-04-23T12:52:35;1.40;;;1.17;;
8490;SDS011;4282;49.986;7.938;2023-04-23T12:55:03;3.42;;;1.42;;
8490;SDS011;4282;49.986;7.938;2023-04-23T12:57:32;2.50;;;1.50;;
8490;SDS011;4282;49.986;7.938;2023-04-23T13:00:00;1.30;;;1.20;;
8490;SDS011;4282;49.986;7.938;2023-04-23T13:02:32;2.42;;;1.45;;
8490;SDS011;4282;49.986;7.938;2023-04-23T13:05:00;2.90;;;1.45;;
8490;SDS011;4282;49.986;7.938;2023-04-23T13:07:29;1.65;;;1.10;;
8490;SDS011;4282;49.986;7.938;2023-04-23T13:09:57;2.55;;;1.50;;
8490;SDS011;4282;49.986;7.938;2023-04-23T13:12:26;1.30;;;1.08;;
8490;SDS011;4282;49.986;7.938;2023-04-23T13:14:54;1.90;;;1.45;;
8490;SDS011;4282;49.986;7.938;2023-04-23T13:17:23;1.73;;;1.10;;
8490;SDS011;4282;49.986;7.938;2023-04-23T13:19:54;1.90;;;1.20;;
8490;SDS011;4282;49.986;7.938;2023-04-23T13:22:23;1.50;;;1.35;;
8490;SDS011;4282;49.986;7.938;2023-04-23T13:24:53;1.30;;;1.20;;
8490;SDS011;4282;49.986;7.938;2023-04-23T13:27:21;1.38;;;1.08;;
8490;SDS011;4282;49.986;7.938;2023-04-23T13:29:51;2.85;;;1.02;;
8490;SDS011;4282;49.986;7.938;2023-04-23T13:32:19;3.35;;;1.25;;
8490;SDS011;4282;49.986;7.938;2023-04-23T13:34:47;3.30;;;1.45;;
8490;SDS011;4282;49.986;7.938;2023-04-23T13:37:18;1.60;;;1.35;;
8490;SDS011;4282;49.986;7.938;2023-04-23T13:39:48;1.40;;;1.30;;
8490;SDS011;4282;49.986;7.938;2023-04-23T13:42:16;1.70;;;1.20;;
8490;SDS011;4282;49.986;7.938;2023-04-23T13:44:44;2.25;;;1.63;;
8490;SDS011;4282;49.986;7.938;2023-04-23T13:47:12;2.00;;;1.17;;
8490;SDS011;4282;49.986;7.938;2023-04-23T13:49:41;2.78;;;1.40;;
8490;SDS011;4282;49.986;7.938;2023-04-23T13:52:09;2.10;;;1.30;;
8490;SDS011;4282;49.986;7.938;2023-04-23T13:54:40;1.33;;;1.23;;
8490;SDS011;4282;49.986;7.938;2023-04-23T13:57:08;1.63;;;1.50;;
8490;SDS011;4282;49.986;7.938;2023-04-23T13:59:36;2.63;;;1.17;;
8490;SDS011;4282;49.986;7.938;2023-04-23T14:02:05;2.55;;;1.20;;
8490;SDS011;4282;49.986;7.938;2023-04-23T14:04:33;1.65;;;1.17;;
8490;SDS011;4282;49.986;7.938;2023-04-23T14:07:03;2.50;;;1.38;;
8490;SDS011;4282;49.986;7.938;2023-04-23T14:09:32;1.73;;;1.55;;
8490;SDS011;4282;49.986;7.938;2023-04-23T14:12:03;1.40;;;1.23;;
8490;SDS011;4282;49.986;7.938;2023-04-23T14:14:32;1.50;;;1.40;;
8490;SDS011;4282;49.986;7.938;2023-04-23T14:17:00;3.55;;;1.52;;
8490;SDS011;4282;49.986;7.938;2023-04-23T14:19:28;3.83;;;1.30;;
8490;SDS011;4282;49.986;7.938;2023-04-23T14:21:58;2.22;;;1.20;;
8490;SDS011;4282;49.986;7.938;2023-04-23T14:24:27;1.58;;;1.40;;
8490;SDS011;4282;49.986;7.938;2023-04-23T14:26:56;3.75;;;1.70;;
8490;SDS011;4282;49.986;7.938;2023-04-23T14:29:33;1.77;;;1.67;;
8490;SDS011;4282;49.986;7.938;2023-04-23T14:32:02;1.50;;;1.10;;
8490;SDS011;4282;49.986;7.938;2023-04-23T14:34:31;2.88;;;1.35;;
8490;SDS011;4282;49.986;7.938;2023-04-23T14:36:59;2.17;;;1.40;;
8490;SDS011;4282;49.986;7.938;2023-04-23T14:39:28;1.30;;;1.13;;
8490;SDS011;4282;49.986;7.938;2023-04-23T14:41:56;1.45;;;1.30;;
8490;SDS011;4282;49.986;7.938;2023-04-23T14:44:25;0.70;;;0.70;;
8490;SDS011;4282;49.986;7.938;2023-04-23T14:46:55;1.20;;;1.10;;
8490;SDS011;4282;49.986;7.938;2023-04-23T14:49:24;3.67;;;1.42;;
8490;SDS011;4282;49.986;7.938;2023-04-23T14:51:52;2.95;;;1.75;;
8490;SDS011;4282;49.986;7.938;2023-04-23T14:54:22;2.58;;;1.33;;
8490;SDS011;4282;49.986;7.938;2023-04-23T14:56:50;1.05;;;1.00;;
8490;SDS011;4282;49.986;7.938;2023-04-23T14:59:19;1.40;;;1.30;;
8490;SDS011;4282;49.986;7.938;2023-04-23T15:01:47;1.83;;;1.10;;
8490;SDS011;4282;49.986;7.938;2023-04-23T15:04:18;1.20;;;1.10;;
8490;SDS011;4282;49.986;7.938;2023-04-23T15:06:46;1.83;;;1.20;;
8490;SDS011;4282;49.986;7.938;2023-04-23T15:09:15;1.90;;;0.90;;
8490;SDS011;4282;49.986;7.938;2023-04-23T15:11:43;2.53;;;1.48;;
8490;SDS011;4282;49.986;7.938;2023-04-23T15:14:17;3.08;;;1.30;;
8490;SDS011;4282;49.986;7.938;2023-04-23T15:16:46;2.28;;;1.17;;
8490;SDS011;4282;49.986;7.938;2023-04-23T15:19:15;1.15;;;1.05;;
8490;SDS011;4282;49.986;7.938;2023-04-23T15:21:46;1.88;;;1.20;;
8490;SDS011;4282;49.986;7.938;2023-04-23T15:24:14;1.40;;;1.30;;
8490;SDS011;4282;49.986;7.938;2023-04-23T15:26:43;1.55;;;1.38;;
8490;SDS011;4282;49.986;7.938;2023-04-23T15:29:13;1.33;;;1.17;;
8490;SDS011;4282;49.986;7.938;2023-04-23T15:31:42;1.42;;;1.10;;